createdAt,value
2018-12-27T00:03:44.181Z,101563.00
2018-12-27T00:08:45.445Z,101544.00
2018-12-27T00:13:46.695Z,101541.00
2018-12-27T00:18:48.036Z,101539.00
2018-12-27T00:23:49.393Z,101542.00
2018-12-27T00:28:50.908Z,101544.00
2018-12-27T00:33:52.244Z,101537.00
2018-12-27T00:38:53.816Z,101534.00
2018-12-27T00:43:55.205Z,101525.00
2018-12-27T00:48:56.603Z,101534.00
2018-12-27T00:53:57.981Z,101529.00
2018-12-27T00:58:59.475Z,101527.00
2018-12-27T01:04:00.819Z,101529.00
2018-12-27T01:09:02.063Z,101534.00
2018-12-27T01:14:03.308Z,101524.00
2018-12-27T01:19:04.563Z,101536.00
2018-12-27T01:24:05.791Z,101525.00
2018-12-27T01:29:07.052Z,101531.00
2018-12-27T01:34:08.278Z,101531.00
2018-12-27T01:39:09.536Z,101526.00
2018-12-27T01:44:10.777Z,101521.00
2018-12-27T01:49:12.011Z,101531.00
2018-12-27T01:54:13.274Z,101527.00
2018-12-27T01:59:14.531Z,101526.00
2018-12-27T02:04:15.777Z,101521.00
2018-12-27T02:09:17.013Z,101529.00
2018-12-27T02:14:18.259Z,101519.00
2018-12-27T02:19:19.614Z,101516.00
2018-12-27T02:24:20.939Z,101488.00
2018-12-27T02:29:22.322Z,101512.00
2018-12-27T02:34:23.665Z,101512.00
2018-12-27T02:39:25.009Z,101507.00
2018-12-27T02:44:26.257Z,101498.00
2018-12-27T02:49:27.497Z,101501.00
2018-12-27T02:54:28.747Z,101475.00
2018-12-27T02:59:29.991Z,101477.00
2018-12-27T03:04:31.224Z,101474.00
2018-12-27T03:09:32.461Z,101469.00
2018-12-27T03:14:33.712Z,101455.00
2018-12-27T03:19:34.953Z,101439.00
2018-12-27T03:24:36.184Z,101442.00
2018-12-27T03:29:37.420Z,101422.00
2018-12-27T03:34:38.655Z,101420.00
2018-12-27T03:39:39.887Z,101428.00
2018-12-27T03:44:41.160Z,101411.00
2018-12-27T03:49:42.395Z,101409.00
2018-12-27T03:54:43.621Z,101405.00
2018-12-27T03:59:44.952Z,101396.00
2018-12-27T04:04:46.192Z,101399.00
2018-12-27T04:09:47.438Z,101396.00
2018-12-27T04:14:48.686Z,101405.00
2018-12-27T04:19:49.920Z,101404.00
2018-12-27T04:24:51.445Z,101389.00
2018-12-27T04:29:52.668Z,101391.00
2018-12-27T04:34:54.710Z,101399.00
2018-12-27T04:39:55.952Z,101408.00
2018-12-27T04:44:57.174Z,101405.00
2018-12-27T04:49:58.424Z,101404.00
2018-12-27T04:54:59.665Z,101408.00
2018-12-27T05:00:00.893Z,101413.00
2018-12-27T05:05:02.451Z,101393.00
2018-12-27T05:10:03.891Z,101403.00
2018-12-27T05:15:05.343Z,101399.00
2018-12-27T05:20:06.571Z,101409.00
2018-12-27T05:25:07.876Z,101398.00
2018-12-27T05:30:09.132Z,101391.00
2018-12-27T05:35:10.385Z,101410.00
2018-12-27T05:40:11.628Z,101405.00
2018-12-27T05:45:12.867Z,101399.00
2018-12-27T05:50:14.090Z,101400.00
2018-12-27T05:55:15.332Z,101397.00
2018-12-27T06:00:16.569Z,101401.00
2018-12-27T06:05:17.814Z,101392.00
2018-12-27T06:10:19.056Z,101378.00
2018-12-27T06:15:20.284Z,101379.00
2018-12-27T06:20:21.531Z,101384.00
2018-12-27T06:25:22.759Z,101381.00
2018-12-27T06:30:24.082Z,101387.00
2018-12-27T06:35:25.311Z,101372.00
2018-12-27T06:40:26.578Z,101371.00
2018-12-27T06:45:27.809Z,101363.00
2018-12-27T06:50:29.045Z,101357.00
2018-12-27T06:55:30.278Z,101376.00
2018-12-27T07:00:31.524Z,101369.00
2018-12-27T07:05:32.751Z,101374.00
2018-12-27T07:10:33.986Z,101378.00
2018-12-27T07:15:35.216Z,101376.00
2018-12-27T07:20:36.454Z,101379.00
2018-12-27T07:25:37.672Z,101380.00
2018-12-27T07:30:38.939Z,101373.00
2018-12-27T07:35:40.176Z,101380.00
2018-12-27T07:40:41.495Z,101378.00
2018-12-27T07:45:42.739Z,101381.00
2018-12-27T07:50:43.987Z,101391.00
2018-12-27T07:55:45.222Z,101379.00
2018-12-27T08:00:46.465Z,101387.00
2018-12-27T08:05:47.705Z,101389.00
2018-12-27T08:10:49.014Z,101396.00
2018-12-27T08:15:50.181Z,101395.00
2018-12-27T08:20:51.431Z,101409.00
2018-12-27T08:25:52.679Z,101414.00
2018-12-27T08:30:53.920Z,101415.00
2018-12-27T08:35:55.182Z,101402.00
2018-12-27T08:40:56.412Z,101401.00
2018-12-27T08:45:57.655Z,101401.00
2018-12-27T08:50:58.914Z,101409.00
2018-12-27T08:56:00.145Z,101407.00
2018-12-27T09:01:01.376Z,101407.00
2018-12-27T09:06:02.632Z,101413.00
2018-12-27T09:11:03.867Z,101416.00
2018-12-27T09:16:05.095Z,101417.00
2018-12-27T09:21:06.344Z,101413.00
2018-12-27T09:26:07.600Z,101402.00
2018-12-27T09:31:08.874Z,101415.00
2018-12-27T09:36:10.116Z,101398.00
2018-12-27T09:41:11.455Z,101399.00
2018-12-27T09:46:12.712Z,101399.00
2018-12-27T09:51:13.958Z,101394.00
2018-12-27T09:56:15.209Z,101389.00
2018-12-27T10:01:16.580Z,101377.00
2018-12-27T10:06:17.829Z,101379.00
2018-12-27T10:11:19.071Z,101369.00
2018-12-27T10:16:20.328Z,101368.00
2018-12-27T10:21:21.579Z,101374.00
2018-12-27T10:26:22.814Z,101371.00
2018-12-27T10:31:24.046Z,101365.00
2018-12-27T10:36:25.295Z,101356.00
2018-12-27T10:41:26.529Z,101351.00
2018-12-27T10:46:27.771Z,101350.00
2018-12-27T10:51:29.017Z,101347.00
2018-12-27T10:56:30.255Z,101340.00
2018-12-27T11:01:31.518Z,101330.00
2018-12-27T11:06:32.764Z,101338.00
2018-12-27T11:11:34.032Z,101316.00
2018-12-27T11:16:35.298Z,101316.00
2018-12-27T11:21:36.546Z,101308.00
2018-12-27T11:26:37.791Z,101286.00
2018-12-27T11:31:39.063Z,101282.00
2018-12-27T11:36:40.313Z,101290.00
2018-12-27T11:41:41.556Z,101272.00
2018-12-27T11:46:42.795Z,101265.00
2018-12-27T11:51:44.043Z,101269.00
2018-12-27T11:56:45.332Z,101257.00
2018-12-27T12:01:46.587Z,101259.00
2018-12-27T12:06:47.845Z,101260.00
2018-12-27T12:11:49.084Z,101252.00
2018-12-27T12:16:50.397Z,101257.00
2018-12-27T12:21:51.668Z,101238.00
2018-12-27T12:26:52.920Z,101231.00
2018-12-27T12:31:54.175Z,101239.00
2018-12-27T12:36:55.750Z,101228.00
2018-12-27T12:41:57.415Z,101223.00
2018-12-27T12:46:58.636Z,101223.00
2018-12-27T12:51:59.890Z,101222.00
2018-12-27T12:57:01.368Z,101224.00
2018-12-27T13:02:03.119Z,101219.00
2018-12-27T13:07:04.508Z,101212.00
2018-12-27T13:12:05.760Z,101211.00
2018-12-27T13:17:07.028Z,101195.00
2018-12-27T13:22:08.295Z,101202.00
2018-12-27T13:27:09.535Z,101194.00
2018-12-27T13:32:10.807Z,101202.00
2018-12-27T13:37:12.052Z,101191.00
2018-12-27T13:42:13.291Z,101192.00
2018-12-27T13:47:14.551Z,101193.00
2018-12-27T13:52:15.847Z,101180.00
2018-12-27T13:57:17.094Z,101187.00
2018-12-27T14:02:18.356Z,101184.00
2018-12-27T14:07:19.614Z,101187.00
2018-12-27T14:12:20.879Z,101184.00
2018-12-27T14:17:22.131Z,101177.00
2018-12-27T14:22:24.285Z,101178.00
2018-12-27T14:27:25.556Z,101174.00
2018-12-27T14:32:26.812Z,101183.00
2018-12-27T14:37:28.054Z,101189.00
2018-12-27T14:42:29.293Z,101193.00
2018-12-27T14:47:30.630Z,101198.00
2018-12-27T14:52:31.893Z,101206.00
2018-12-27T14:57:33.125Z,101194.00
2018-12-27T15:02:34.373Z,101199.00
2018-12-27T15:07:35.620Z,101191.00
2018-12-27T15:12:36.864Z,101189.00
2018-12-27T15:17:38.131Z,101174.00
2018-12-27T15:22:39.417Z,101183.00
2018-12-27T15:27:40.661Z,101172.00
2018-12-27T15:32:41.939Z,101176.00
2018-12-27T15:37:43.195Z,101170.00
2018-12-27T15:42:44.465Z,101194.00
2018-12-27T15:47:45.751Z,101191.00
2018-12-27T15:52:46.980Z,101175.00
2018-12-27T15:57:48.241Z,101188.00
2018-12-27T16:02:49.469Z,101190.00
2018-12-27T16:07:50.749Z,101187.00
2018-12-27T16:12:52.002Z,101193.00
2018-12-27T16:17:53.260Z,101195.00
2018-12-27T16:22:54.504Z,101194.00
2018-12-27T16:27:55.755Z,101192.00
2018-12-27T16:32:57.017Z,101184.00
2018-12-27T16:37:58.242Z,101190.00
2018-12-27T16:42:59.503Z,101199.00
2018-12-27T16:48:00.870Z,101191.00
2018-12-27T16:53:02.140Z,101183.00
2018-12-27T16:58:03.429Z,101187.00
2018-12-27T17:03:04.684Z,101179.00
2018-12-27T17:08:06.429Z,101180.00
2018-12-27T17:13:07.684Z,101184.00
2018-12-27T17:18:08.950Z,101179.00
2018-12-27T17:23:10.175Z,101189.00
2018-12-27T17:28:11.431Z,101194.00
2018-12-27T17:33:12.793Z,101198.00
2018-12-27T17:38:14.051Z,101191.00
2018-12-27T17:43:15.326Z,101190.00
2018-12-27T17:48:16.613Z,101187.00
2018-12-27T17:53:17.871Z,101196.00
2018-12-27T17:58:19.107Z,101193.00
2018-12-27T18:03:20.375Z,101186.00
2018-12-27T18:08:21.630Z,101199.00
2018-12-27T18:13:22.894Z,101186.00
2018-12-27T18:18:24.164Z,101199.00
2018-12-27T18:23:25.413Z,101209.00
2018-12-27T18:28:26.780Z,101209.00
2018-12-27T18:33:28.159Z,101204.00
2018-12-27T18:38:29.418Z,101205.00
2018-12-27T18:43:30.691Z,101206.00
2018-12-27T18:48:31.954Z,101218.00
2018-12-27T18:53:33.219Z,101210.00
2018-12-27T18:58:34.477Z,101209.00
2018-12-27T19:03:35.755Z,101216.00
2018-12-27T19:08:37.039Z,101217.00
2018-12-27T19:13:38.268Z,101220.00
2018-12-27T19:18:39.554Z,101225.00
2018-12-27T19:23:40.935Z,101221.00
2018-12-27T19:28:42.214Z,101218.00
2018-12-27T19:33:43.487Z,101207.00
2018-12-27T19:38:44.745Z,101217.00
2018-12-27T19:43:46.002Z,101229.00
2018-12-27T19:48:47.286Z,101222.00
2018-12-27T19:53:48.639Z,101223.00
2018-12-27T19:58:49.881Z,101224.00
2018-12-27T20:03:51.148Z,101214.00
2018-12-27T20:08:52.398Z,101218.00
2018-12-27T20:13:53.693Z,101218.00
2018-12-27T20:18:54.944Z,101216.00
2018-12-27T20:23:56.201Z,101213.00
2018-12-27T20:28:57.478Z,101212.00
2018-12-27T20:33:59.981Z,101218.00
2018-12-27T20:39:01.380Z,101219.00
2018-12-27T20:44:02.765Z,101220.00
2018-12-27T20:49:04.027Z,101226.00
2018-12-27T20:54:05.290Z,101234.00
2018-12-27T20:59:06.537Z,101219.00
2018-12-27T21:04:07.799Z,101235.00
2018-12-27T21:09:09.051Z,101220.00
2018-12-27T21:14:10.300Z,101230.00
2018-12-27T21:19:11.554Z,101232.00
2018-12-27T21:24:12.804Z,101226.00
2018-12-27T21:29:14.079Z,101232.00
2018-12-27T21:34:15.299Z,101224.00
2018-12-27T21:39:16.577Z,101233.00
2018-12-27T21:44:17.992Z,101212.00
2018-12-27T21:49:19.293Z,101210.00
2018-12-27T21:54:20.731Z,101206.00
2018-12-27T21:59:21.961Z,101202.00
2018-12-27T22:04:23.242Z,101191.00
2018-12-27T22:09:24.508Z,101176.00
2018-12-27T22:14:25.770Z,101188.00
2018-12-27T22:19:27.013Z,101175.00
2018-12-27T22:24:28.278Z,101194.00
2018-12-27T22:29:29.559Z,101201.00
2018-12-27T22:34:30.794Z,101193.00
2018-12-27T22:39:32.046Z,101197.00
2018-12-27T22:44:33.298Z,101198.00
2018-12-27T22:49:34.557Z,101185.00
2018-12-27T22:54:35.822Z,101182.00
2018-12-27T22:59:37.072Z,101188.00
2018-12-27T23:04:38.315Z,101175.00
2018-12-27T23:09:39.786Z,101185.00
2018-12-27T23:14:41.025Z,101181.00
2018-12-27T23:19:42.317Z,101175.00
2018-12-27T23:24:43.625Z,101176.00
2018-12-27T23:29:44.858Z,101176.00
2018-12-27T23:34:46.110Z,101176.00
2018-12-27T23:39:47.345Z,101183.00
2018-12-27T23:44:48.592Z,101182.00
2018-12-27T23:49:49.846Z,101174.00
2018-12-27T23:54:51.116Z,101192.00
2018-12-27T23:59:52.376Z,101187.00
